• 1

Unser Programm für 2016

  • 1

WebCam

Kamera Halle
Kamera Vorplatz
Wetter EDDS

METAR

EDDS 270320Z VRB02KT CAVOK 17/16 Q1018 =


TAF

EDDS 262300Z 2700/2724 25004KT 9999 SCT045 BECMG 2710/2713 28009KT BECMG 2719/2722 VRB03KT =


SR/SS

03:50 / 19:05 UTC
(EDSO 27-07-2016)

Austräger der GPS Triangle WM 2017